sensor_id;sensor_type;location;lat;lon;timestamp;pressure;altitude;pressure_sealevel;temperature;humidity
40612;BME280;26317;44.894;20.286;2023-09-19T00:00:57;100529.50;;;24.18;51.13
40612;BME280;26317;44.894;20.286;2023-09-19T00:03:35;100525.53;;;24.15;51.42
40612;BME280;26317;44.894;20.286;2023-09-19T00:06:14;100524.75;;;24.15;51.25
40612;BME280;26317;44.894;20.286;2023-09-19T00:08:53;100520.38;;;24.14;51.09
40612;BME280;26317;44.894;20.286;2023-09-19T00:11:30;100516.16;;;24.16;51.06
40612;BME280;26317;44.894;20.286;2023-09-19T00:14:08;100524.88;;;24.22;50.27
40612;BME280;26317;44.894;20.286;2023-09-19T00:16:53;100526.75;;;24.18;50.19
40612;BME280;26317;44.894;20.286;2023-09-19T00:19:33;100517.31;;;24.15;50.33
40612;BME280;26317;44.894;20.286;2023-09-19T00:22:06;100523.31;;;24.21;50.11
40612;BME280;26317;44.894;20.286;2023-09-19T00:24:41;100531.59;;;24.24;50.70
40612;BME280;26317;44.894;20.286;2023-09-19T00:27:20;100519.38;;;24.22;49.37
40612;BME280;26317;44.894;20.286;2023-09-19T00:30:08;100522.63;;;24.27;49.16
40612;BME280;26317;44.894;20.286;2023-09-19T00:33:07;100522.28;;;24.29;49.16
40612;BME280;26317;44.894;20.286;2023-09-19T00:38:37;100532.94;;;24.34;48.96
40612;BME280;26317;44.894;20.286;2023-09-19T00:41:19;100529.03;;;24.35;48.94
40612;BME280;26317;44.894;20.286;2023-09-19T00:43:56;100521.59;;;24.36;48.58
40612;BME280;26317;44.894;20.286;2023-09-19T00:46:39;100504.00;;;24.37;48.83
40612;BME280;26317;44.894;20.286;2023-09-19T00:49:30;100510.22;;;24.34;48.37
40612;BME280;26317;44.894;20.286;2023-09-19T00:52:15;100516.78;;;24.29;48.58
40612;BME280;26317;44.894;20.286;2023-09-19T00:54:57;100516.78;;;24.29;48.58
40612;BME280;26317;44.894;20.286;2023-09-19T00:57:40;100508.84;;;24.24;48.75
40612;BME280;26317;44.894;20.286;2023-09-19T01:00:27;100520.19;;;24.22;49.06
40612;BME280;26317;44.894;20.286;2023-09-19T01:03:09;100513.41;;;24.16;48.77
40612;BME280;26317;44.894;20.286;2023-09-19T01:05:51;100517.81;;;24.21;48.77
40612;BME280;26317;44.894;20.286;2023-09-19T01:08:27;100511.88;;;24.19;48.99
40612;BME280;26317;44.894;20.286;2023-09-19T01:11:12;100511.53;;;24.20;48.67
40612;BME280;26317;44.894;20.286;2023-09-19T01:14:15;100510.06;;;24.26;48.40
40612;BME280;26317;44.894;20.286;2023-09-19T01:17:03;100511.94;;;24.22;48.43
40612;BME280;26317;44.894;20.286;2023-09-19T01:20:15;100508.72;;;24.17;48.74
40612;BME280;26317;44.894;20.286;2023-09-19T01:23:29;100514.28;;;24.20;48.55
40612;BME280;26317;44.894;20.286;2023-09-19T01:26:35;100512.09;;;24.10;48.65
40612;BME280;26317;44.894;20.286;2023-09-19T01:29:30;100520.84;;;24.16;48.51
40612;BME280;26317;44.894;20.286;2023-09-19T01:32:23;100524.75;;;24.15;48.64
40612;BME280;26317;44.894;20.286;2023-09-19T01:35:00;100524.75;;;24.15;48.56
40612;BME280;26317;44.894;20.286;2023-09-19T01:37:44;100524.75;;;24.15;48.67
40612;BME280;26317;44.894;20.286;2023-09-19T01:40:22;100532.59;;;24.16;49.01
40612;BME280;26317;44.894;20.286;2023-09-19T01:43:20;100528.59;;;24.14;49.25
40612;BME280;26317;44.894;20.286;2023-09-19T01:46:02;100533.75;;;24.15;48.91
40612;BME280;26317;44.894;20.286;2023-09-19T01:48:46;100533.41;;;24.17;49.04
40612;BME280;26317;44.894;20.286;2023-09-19T01:51:42;100524.00;;;24.18;48.97
40612;BME280;26317;44.894;20.286;2023-09-19T01:54:26;100514.56;;;24.15;48.97
40612;BME280;26317;44.894;20.286;2023-09-19T01:57:09;100505.09;;;24.13;49.01
40612;BME280;26317;44.894;20.286;2023-09-19T01:59:54;100503.59;;;24.15;48.69
40612;BME280;26317;44.894;20.286;2023-09-19T02:02:50;100501.19;;;24.14;48.81
40612;BME280;26317;44.894;20.286;2023-09-19T02:05:52;100493.34;;;24.12;49.02
40612;BME280;26317;44.894;20.286;2023-09-19T02:08:28;100492.47;;;24.08;49.15
40612;BME280;26317;44.894;20.286;2023-09-19T02:11:09;100482.66;;;24.07;49.56
40612;BME280;26317;44.894;20.286;2023-09-19T02:13:43;100483.75;;;24.03;50.06
40612;BME280;26317;44.894;20.286;2023-09-19T02:16:29;100482.59;;;24.04;50.83
40612;BME280;26317;44.894;20.286;2023-09-19T02:19:05;100472.78;;;24.03;51.10
40612;BME280;26317;44.894;20.286;2023-09-19T02:21:57;100474.66;;;23.99;50.14
40612;BME280;26317;44.894;20.286;2023-09-19T02:24:32;100495.06;;;24.01;50.25
40612;BME280;26317;44.894;20.286;2023-09-19T02:27:17;100491.47;;;23.97;51.87
40612;BME280;26317;44.894;20.286;2023-09-19T02:30:05;100505.69;;;24.03;52.49
40612;BME280;26317;44.894;20.286;2023-09-19T02:32:41;100491.97;;;24.03;54.40
40612;BME280;26317;44.894;20.286;2023-09-19T02:35:19;100492.31;;;24.01;53.92
40612;BME280;26317;44.894;20.286;2023-09-19T02:38:02;100488.31;;;23.95;53.41
40612;BME280;26317;44.894;20.286;2023-09-19T02:40:36;100488.66;;;23.94;53.19
40612;BME280;26317;44.894;20.286;2023-09-19T02:43:20;100484.72;;;23.91;53.27
40612;BME280;26317;44.894;20.286;2023-09-19T02:45:56;100472.50;;;23.89;52.74
40612;BME280;26317;44.894;20.286;2023-09-19T02:48:32;100447.78;;;23.85;52.84
40612;BME280;26317;44.894;20.286;2023-09-19T02:51:11;100435.53;;;23.79;52.82
40612;BME280;26317;44.894;20.286;2023-09-19T02:53:51;100428.81;;;23.76;53.17
40612;BME280;26317;44.894;20.286;2023-09-19T02:56:26;100426.81;;;23.73;53.28
40612;BME280;26317;44.894;20.286;2023-09-19T02:59:03;100419.63;;;23.65;53.56
40612;BME280;26317;44.894;20.286;2023-09-19T03:01:38;100424.38;;;23.68;53.63
40612;BME280;26317;44.894;20.286;2023-09-19T03:04:13;100427.91;;;23.69;53.60
40612;BME280;26317;44.894;20.286;2023-09-19T03:06:55;100429.84;;;23.68;53.45
40612;BME280;26317;44.894;20.286;2023-09-19T03:09:49;100427.09;;;23.68;53.29
40612;BME280;26317;44.894;20.286;2023-09-19T03:12:24;100428.69;;;23.69;53.47
40612;BME280;26317;44.894;20.286;2023-09-19T03:15:10;100429.84;;;23.68;53.60
40612;BME280;26317;44.894;20.286;2023-09-19T03:17:51;100431.00;;;23.67;53.90
40612;BME280;26317;44.894;20.286;2023-09-19T03:20:52;100422.72;;;23.64;54.29
40612;BME280;26317;44.894;20.286;2023-09-19T03:23:26;100420.75;;;23.64;54.34
40612;BME280;26317;44.894;20.286;2023-09-19T03:26:07;100421.22;;;23.66;54.82
40612;BME280;26317;44.894;20.286;2023-09-19T03:28:49;100416.03;;;23.61;54.88
40612;BME280;26317;44.894;20.286;2023-09-19T03:31:32;100415.66;;;23.63;55.14
40612;BME280;26317;44.894;20.286;2023-09-19T03:34:12;100406.94;;;23.57;55.37
40612;BME280;26317;44.894;20.286;2023-09-19T03:36:53;100408.94;;;23.60;55.16
40612;BME280;26317;44.894;20.286;2023-09-19T03:39:27;100425.03;;;23.62;55.26
40612;BME280;26317;44.894;20.286;2023-09-19T03:42:12;100418.75;;;23.61;55.59
40612;BME280;26317;44.894;20.286;2023-09-19T03:45:01;100424.22;;;23.61;55.04
40612;BME280;26317;44.894;20.286;2023-09-19T03:47:36;100427.78;;;23.62;55.03
40612;BME280;26317;44.894;20.286;2023-09-19T03:50:20;100432.78;;;23.60;55.67
40612;BME280;26317;44.894;20.286;2023-09-19T03:53:03;100426.63;;;23.63;54.90
40612;BME280;26317;44.894;20.286;2023-09-19T03:55:48;100426.25;;;23.64;55.00
40612;BME280;26317;44.894;20.286;2023-09-19T03:58:28;100418.81;;;23.65;55.23
40612;BME280;26317;44.894;20.286;2023-09-19T04:01:13;100437.66;;;23.66;55.05
40612;BME280;26317;44.894;20.286;2023-09-19T04:03:52;100433.72;;;23.67;54.45
40612;BME280;26317;44.894;20.286;2023-09-19T04:06:25;100438.44;;;23.67;54.55
40612;BME280;26317;44.894;20.286;2023-09-19T04:09:03;100438.06;;;23.68;54.55
40612;BME280;26317;44.894;20.286;2023-09-19T04:11:42;100435.38;;;23.72;54.34
40612;BME280;26317;44.894;20.286;2023-09-19T04:14:40;100447.22;;;23.76;54.32
40612;BME280;26317;44.894;20.286;2023-09-19T04:17:13;100444.13;;;23.77;53.90
40612;BME280;26317;44.894;20.286;2023-09-19T04:20:02;100444.19;;;23.81;54.06
40612;BME280;26317;44.894;20.286;2023-09-19T04:22:44;100447.66;;;23.78;53.57
40612;BME280;26317;44.894;20.286;2023-09-19T04:25:23;100457.88;;;23.81;53.57
40612;BME280;26317;44.894;20.286;2023-09-19T04:27:58;100461.00;;;23.79;53.58
40612;BME280;26317;44.894;20.286;2023-09-19T04:30:44;100458.16;;;23.76;53.53
40612;BME280;26317;44.894;20.286;2023-09-19T04:33:24;100469.91;;;23.76;53.54
40612;BME280;26317;44.894;20.286;2023-09-19T04:36:04;100468.84;;;23.81;54.01
40612;BME280;26317;44.894;20.286;2023-09-19T04:39:02;100476.63;;;23.79;53.89
40612;BME280;26317;44.894;20.286;2023-09-19T04:41:42;100483.25;;;23.78;54.19
40612;BME280;26317;44.894;20.286;2023-09-19T04:44:24;100489.53;;;23.78;54.97
40612;BME280;26317;44.894;20.286;2023-09-19T04:47:03;100482.41;;;23.74;55.85
40612;BME280;26317;44.894;20.286;2023-09-19T04:49:41;100489.81;;;23.73;56.66
40612;BME280;26317;44.894;20.286;2023-09-19T04:52:14;100491.75;;;23.73;57.01
40612;BME280;26317;44.894;20.286;2023-09-19T04:54:57;100490.97;;;23.72;56.72
40612;BME280;26317;44.894;20.286;2023-09-19T04:57:33;100486.22;;;23.69;57.00
40612;BME280;26317;44.894;20.286;2023-09-19T05:00:14;100479.16;;;23.68;56.62
40612;BME280;26317;44.894;20.286;2023-09-19T05:03:05;100482.47;;;23.58;56.48
40612;BME280;26317;44.894;20.286;2023-09-19T05:05:38;100480.16;;;23.60;55.93
40612;BME280;26317;44.894;20.286;2023-09-19T05:08:19;100469.13;;;23.57;56.31
40612;BME280;26317;44.894;20.286;2023-09-19T05:10:53;100470.19;;;23.52;56.34
40612;BME280;26317;44.894;20.286;2023-09-19T05:13:32;100481.16;;;23.52;56.11
40612;BME280;26317;44.894;20.286;2023-09-19T05:16:11;100473.28;;;23.51;56.43
40612;BME280;26317;44.894;20.286;2023-09-19T05:19:01;100472.22;;;23.55;56.23
40612;BME280;26317;44.894;20.286;2023-09-19T05:21:42;100453.44;;;23.38;55.88
40612;BME280;26317;44.894;20.286;2023-09-19T05:24:19;100479.94;;;23.50;56.49
40612;BME280;26317;44.894;20.286;2023-09-19T05:27:00;100481.94;;;23.53;56.00
40612;BME280;26317;44.894;20.286;2023-09-19T05:29:35;100471.34;;;23.51;55.81
40612;BME280;26317;44.894;20.286;2023-09-19T05:32:15;100484.75;;;23.56;56.09
40612;BME280;26317;44.894;20.286;2023-09-19T05:35:04;100482.47;;;23.58;55.77
40612;BME280;26317;44.894;20.286;2023-09-19T05:37:43;100476.25;;;23.61;55.69
40612;BME280;26317;44.894;20.286;2023-09-19T05:40:29;100469.19;;;23.60;56.00
40612;BME280;26317;44.894;20.286;2023-09-19T05:43:11;100471.94;;;23.60;55.94
40612;BME280;26317;44.894;20.286;2023-09-19T05:45:47;100466.59;;;23.67;55.91
40612;BME280;26317;44.894;20.286;2023-09-19T05:48:24;100459.63;;;23.70;55.96
40612;BME280;26317;44.894;20.286;2023-09-19T05:51:01;100464.44;;;23.76;56.31
40612;BME280;26317;44.894;20.286;2023-09-19T05:53:43;100457.53;;;23.82;56.33
40612;BME280;26317;44.894;20.286;2023-09-19T05:56:17;100456.78;;;23.86;55.66
40612;BME280;26317;44.894;20.286;2023-09-19T05:58:57;100463.25;;;23.97;55.06
40612;BME280;26317;44.894;20.286;2023-09-19T06:01:46;100468.91;;;24.04;55.12
40612;BME280;26317;44.894;20.286;2023-09-19T06:04:27;100468.16;;;24.07;54.91
40612;BME280;26317;44.894;20.286;2023-09-19T06:07:23;100457.28;;;24.10;54.31
40612;BME280;26317;44.894;20.286;2023-09-19T06:10:10;100462.91;;;24.17;54.01
40612;BME280;26317;44.894;20.286;2023-09-19T06:12:47;100469.75;;;24.27;54.22
40612;BME280;26317;44.894;20.286;2023-09-19T06:15:27;100467.91;;;24.35;54.33
40612;BME280;26317;44.894;20.286;2023-09-19T06:18:14;100463.72;;;24.41;54.29
40612;BME280;26317;44.894;20.286;2023-09-19T06:20:51;100473.72;;;24.52;53.81
40612;BME280;26317;44.894;20.286;2023-09-19T06:23:38;100466.84;;;24.62;53.75
40612;BME280;26317;44.894;20.286;2023-09-19T06:26:19;100471.34;;;24.73;53.66
40612;BME280;26317;44.894;20.286;2023-09-19T06:28:59;100477.38;;;24.83;52.62
40612;BME280;26317;44.894;20.286;2023-09-19T06:31:46;100467.28;;;24.87;53.27
40612;BME280;26317;44.894;20.286;2023-09-19T06:34:22;100463.41;;;24.91;53.04
40612;BME280;26317;44.894;20.286;2023-09-19T06:37:04;100474.94;;;25.00;52.83
40612;BME280;26317;44.894;20.286;2023-09-19T06:39:59;100477.88;;;25.14;52.90
40612;BME280;26317;44.894;20.286;2023-09-19T06:42:37;100474.06;;;25.23;52.50
40612;BME280;26317;44.894;20.286;2023-09-19T06:45:20;100481.59;;;25.26;52.42
40612;BME280;26317;44.894;20.286;2023-09-19T06:48:09;100475.69;;;25.27;52.30
40612;BME280;26317;44.894;20.286;2023-09-19T06:50:53;100473.47;;;25.36;52.62
40612;BME280;26317;44.894;20.286;2023-09-19T06:53:41;100476.31;;;25.43;53.02
40612;BME280;26317;44.894;20.286;2023-09-19T06:56:31;100472.56;;;25.55;52.89
40612;BME280;26317;44.894;20.286;2023-09-19T06:59:08;100489.53;;;25.60;52.09
40612;BME280;26317;44.894;20.286;2023-09-19T07:01:48;100486.13;;;25.71;51.99
40612;BME280;26317;44.894;20.286;2023-09-19T07:04:37;100490.50;;;25.75;51.73
40612;BME280;26317;44.894;20.286;2023-09-19T07:07:15;100491.38;;;25.83;51.52
40612;BME280;26317;44.894;20.286;2023-09-19T07:09:56;100493.38;;;25.86;51.34
40612;BME280;26317;44.894;20.286;2023-09-19T07:12:37;100483.25;;;25.93;51.25
40612;BME280;26317;44.894;20.286;2023-09-19T07:15:12;100495.19;;;26.04;51.90
40612;BME280;26317;44.894;20.286;2023-09-19T07:17:49;100497.56;;;26.09;51.36
40612;BME280;26317;44.894;20.286;2023-09-19T07:20:33;100495.72;;;26.17;50.43
40612;BME280;26317;44.894;20.286;2023-09-19T07:23:27;100501.34;;;26.28;50.80
40612;BME280;26317;44.894;20.286;2023-09-19T07:26:04;100492.78;;;26.36;50.36
40612;BME280;26317;44.894;20.286;2023-09-19T07:28:56;100490.47;;;26.38;49.75
40612;BME280;26317;44.894;20.286;2023-09-19T07:31:31;100500.31;;;26.43;50.43
40612;BME280;26317;44.894;20.286;2023-09-19T07:34:12;100494.44;;;26.44;50.61
40612;BME280;26317;44.894;20.286;2023-09-19T07:36:53;100499.59;;;26.49;50.67
40612;BME280;26317;44.894;20.286;2023-09-19T07:39:47;100500.78;;;26.52;50.12
40612;BME280;26317;44.894;20.286;2023-09-19T07:42:26;100492.63;;;26.59;49.97
40612;BME280;26317;44.894;20.286;2023-09-19T07:45:07;100491.09;;;26.69;49.19
40612;BME280;26317;44.894;20.286;2023-09-19T07:47:46;100507.72;;;26.79;49.37
40612;BME280;26317;44.894;20.286;2023-09-19T07:50:41;100514.94;;;26.91;49.48
40612;BME280;26317;44.894;20.286;2023-09-19T07:53:23;100497.97;;;26.89;49.55
40612;BME280;26317;44.894;20.286;2023-09-19T07:56:02;100508.28;;;26.99;48.89
40612;BME280;26317;44.894;20.286;2023-09-19T07:58:42;100514.63;;;27.03;49.17
40612;BME280;26317;44.894;20.286;2023-09-19T08:01:36;100506.00;;;27.08;49.00
40612;BME280;26317;44.894;20.286;2023-09-19T08:04:12;100511.56;;;27.15;49.23
40612;BME280;26317;44.894;20.286;2023-09-19T08:06:51;100508.84;;;27.22;48.50
40612;BME280;26317;44.894;20.286;2023-09-19T08:09:30;100521.06;;;27.21;49.06
40612;BME280;26317;44.894;20.286;2023-09-19T08:12:08;100520.25;;;27.21;48.58
40612;BME280;26317;44.894;20.286;2023-09-19T08:14:43;100516.69;;;27.17;48.94
40612;BME280;26317;44.894;20.286;2023-09-19T08:17:24;100527.72;;;27.20;48.90
40612;BME280;26317;44.894;20.286;2023-09-19T08:20:00;100515.91;;;27.16;48.98
40612;BME280;26317;44.894;20.286;2023-09-19T08:22:39;100524.97;;;27.20;48.96
40612;BME280;26317;44.894;20.286;2023-09-19T08:25:25;100524.25;;;27.30;48.49
40612;BME280;26317;44.894;20.286;2023-09-19T08:27:59;100521.16;;;27.39;48.64
40612;BME280;26317;44.894;20.286;2023-09-19T08:30:49;100529.16;;;27.51;49.09
40612;BME280;26317;44.894;20.286;2023-09-19T08:33:52;100528.06;;;27.70;48.61
40612;BME280;26317;44.894;20.286;2023-09-19T08:36:32;100523.78;;;27.79;48.16
40612;BME280;26317;44.894;20.286;2023-09-19T08:39:14;100516.69;;;27.89;47.70
40612;BME280;26317;44.894;20.286;2023-09-19T08:41:51;100519.88;;;27.98;47.91
40612;BME280;26317;44.894;20.286;2023-09-19T08:44:37;100518.72;;;28.06;46.79
40612;BME280;26317;44.894;20.286;2023-09-19T08:47:30;100517.22;;;28.12;46.85
40612;BME280;26317;44.894;20.286;2023-09-19T08:50:31;100513.69;;;28.22;48.00
40612;BME280;26317;44.894;20.286;2023-09-19T08:53:11;100513.72;;;28.29;47.00
40612;BME280;26317;44.894;20.286;2023-09-19T08:55:54;100518.88;;;28.45;46.16
40612;BME280;26317;44.894;20.286;2023-09-19T08:58:44;100514.13;;;28.56;46.61
40612;BME280;26317;44.894;20.286;2023-09-19T09:01:28;100520.06;;;28.69;46.88
40612;BME280;26317;44.894;20.286;2023-09-19T09:04:10;100520.13;;;28.76;45.35
40612;BME280;26317;44.894;20.286;2023-09-19T09:07:01;100516.19;;;28.84;45.41
40612;BME280;26317;44.894;20.286;2023-09-19T09:09:38;100526.03;;;28.92;45.20
40612;BME280;26317;44.894;20.286;2023-09-19T09:12:17;100516.94;;;28.95;44.54
40612;BME280;26317;44.894;20.286;2023-09-19T09:14:53;100504.72;;;28.96;44.41
40612;BME280;26317;44.894;20.286;2023-09-19T09:17:39;100498.81;;;29.01;45.07
40612;BME280;26317;44.894;20.286;2023-09-19T09:20:17;100497.59;;;29.06;44.80
40612;BME280;26317;44.894;20.286;2023-09-19T09:23:07;100494.06;;;29.12;45.14
40612;BME280;26317;44.894;20.286;2023-09-19T09:25:54;100497.97;;;29.18;45.00
40612;BME280;26317;44.894;20.286;2023-09-19T09:28:45;100494.44;;;29.29;44.22
40612;BME280;26317;44.894;20.286;2023-09-19T09:31:33;100483.38;;;29.36;43.61
40612;BME280;26317;44.894;20.286;2023-09-19T09:34:16;100488.47;;;29.41;44.15
40612;BME280;26317;44.894;20.286;2023-09-19T09:36:56;100484.91;;;29.54;44.80
40612;BME280;26317;44.894;20.286;2023-09-19T09:39:49;100488.38;;;29.76;44.00
40612;BME280;26317;44.894;20.286;2023-09-19T09:42:37;100492.25;;;29.89;42.43
40612;BME280;26317;44.894;20.286;2023-09-19T09:45:31;100485.94;;;29.92;41.91
40612;BME280;26317;44.894;20.286;2023-09-19T09:48:31;100487.47;;;30.00;43.19
40612;BME280;26317;44.894;20.286;2023-09-19T09:51:03;100489.03;;;30.05;42.54
40612;BME280;26317;44.894;20.286;2023-09-19T09:53:41;100484.59;;;30.22;42.40
40612;BME280;26317;44.894;20.286;2023-09-19T09:56:20;100489.66;;;30.34;41.63
40612;BME280;26317;44.894;20.286;2023-09-19T09:58:57;100480.06;;;30.49;42.21
40612;BME280;26317;44.894;20.286;2023-09-19T10:01:47;100476.81;;;30.61;41.42
40612;BME280;26317;44.894;20.286;2023-09-19T10:04:35;100479.44;;;30.79;41.38
40612;BME280;26317;44.894;20.286;2023-09-19T10:07:31;100477.34;;;30.93;40.50
40612;BME280;26317;44.894;20.286;2023-09-19T10:10:30;100470.53;;;31.05;40.72
40612;BME280;26317;44.894;20.286;2023-09-19T10:13:29;100471.59;;;31.15;40.74
40612;BME280;26317;44.894;20.286;2023-09-19T10:16:20;100471.31;;;31.06;40.74
40612;BME280;26317;44.894;20.286;2023-09-19T10:19:01;100456.28;;;31.03;40.33
40612;BME280;26317;44.894;20.286;2023-09-19T10:21:41;100466.88;;;31.12;40.02
40612;BME280;26317;44.894;20.286;2023-09-19T10:24:28;100460.69;;;30.97;40.83
40612;BME280;26317;44.894;20.286;2023-09-19T10:27:38;100470.34;;;31.19;40.50
40612;BME280;26317;44.894;20.286;2023-09-19T10:30:23;100452.94;;;31.19;40.52
40612;BME280;26317;44.894;20.286;2023-09-19T10:33:02;100469.06;;;31.31;40.07
40612;BME280;26317;44.894;20.286;2023-09-19T10:35:38;100469.50;;;31.26;40.99
40612;BME280;26317;44.894;20.286;2023-09-19T10:38:23;100464.28;;;31.31;41.43
40612;BME280;26317;44.894;20.286;2023-09-19T10:41:02;100456.00;;;31.28;41.29
40612;BME280;26317;44.894;20.286;2023-09-19T10:43:55;100461.56;;;31.28;41.03
40612;BME280;26317;44.894;20.286;2023-09-19T10:46:47;100457.69;;;31.22;40.06
40612;BME280;26317;44.894;20.286;2023-09-19T10:49:26;100458.47;;;31.19;41.02
40612;BME280;26317;44.894;20.286;2023-09-19T10:52:14;100431.28;;;31.10;40.88
40612;BME280;26317;44.894;20.286;2023-09-19T10:54:55;100432.44;;;31.13;40.11
40612;BME280;26317;44.894;20.286;2023-09-19T10:57:36;100439.16;;;31.12;40.72
40612;BME280;26317;44.894;20.286;2023-09-19T11:00:18;100442.25;;;31.21;40.65
40612;BME280;26317;44.894;20.286;2023-09-19T11:03:24;100437.88;;;31.20;40.52
40612;BME280;26317;44.894;20.286;2023-09-19T11:06:07;100433.97;;;31.17;40.61
40612;BME280;26317;44.894;20.286;2023-09-19T11:09:17;100437.13;;;31.16;41.07
40612;BME280;26317;44.894;20.286;2023-09-19T11:11:58;100439.84;;;31.23;41.10
40612;BME280;26317;44.894;20.286;2023-09-19T11:14:42;100441.03;;;31.22;40.77
40612;BME280;26317;44.894;20.286;2023-09-19T11:17:34;100434.38;;;31.16;39.25
40612;BME280;26317;44.894;20.286;2023-09-19T11:20:26;100430.50;;;31.10;40.86
40612;BME280;26317;44.894;20.286;2023-09-19T11:23:23;100426.19;;;31.05;38.92
40612;BME280;26317;44.894;20.286;2023-09-19T11:26:42;100417.13;;;30.97;38.84
40612;BME280;26317;44.894;20.286;2023-09-19T11:29:28;100413.28;;;30.88;38.66
40612;BME280;26317;44.894;20.286;2023-09-19T11:32:08;100431.53;;;30.82;37.41
40612;BME280;26317;44.894;20.286;2023-09-19T11:34:51;100437.53;;;30.77;39.57
40612;BME280;26317;44.894;20.286;2023-09-19T11:44:32;100454.06;;;30.32;39.09
40612;BME280;26317;44.894;20.286;2023-09-19T11:47:24;100471.31;;;29.95;42.06
40612;BME280;26317;44.894;20.286;2023-09-19T11:50:04;100467.88;;;29.63;43.77
40612;BME280;26317;44.894;20.286;2023-09-19T11:53:01;100462.44;;;29.27;45.78
40612;BME280;26317;44.894;20.286;2023-09-19T11:55:54;100460.91;;;28.98;46.29
40612;BME280;26317;44.894;20.286;2023-09-19T11:58:37;100457.00;;;28.89;46.53
40612;BME280;26317;44.894;20.286;2023-09-19T12:04:05;100460.94;;;28.70;47.90
40612;BME280;26317;44.894;20.286;2023-09-19T12:06:43;100464.84;;;28.69;47.70
40612;BME280;26317;44.894;20.286;2023-09-19T12:09:32;100460.97;;;28.81;48.45
40612;BME280;26317;44.894;20.286;2023-09-19T12:12:29;100466.06;;;28.78;49.22
40612;BME280;26317;44.894;20.286;2023-09-19T12:15:11;100453.84;;;28.76;49.29
40612;BME280;26317;44.894;20.286;2023-09-19T12:17:47;100465.69;;;28.80;50.59
40612;BME280;26317;44.894;20.286;2023-09-19T12:20:44;100464.88;;;28.87;50.56
40612;BME280;26317;44.894;20.286;2023-09-19T12:23:20;100476.72;;;28.84;50.75
40612;BME280;26317;44.894;20.286;2023-09-19T12:25:52;100462.91;;;28.91;50.21
40612;BME280;26317;44.894;20.286;2023-09-19T12:28:45;100474.31;;;29.21;49.20
40612;BME280;26317;44.894;20.286;2023-09-19T12:31:25;100475.09;;;29.29;48.88
40612;BME280;26317;44.894;20.286;2023-09-19T12:34:06;100479.00;;;29.45;48.38
40612;BME280;26317;44.894;20.286;2023-09-19T12:37:01;100468.72;;;29.46;47.90
40612;BME280;26317;44.894;20.286;2023-09-19T12:39:43;100487.59;;;29.68;48.15
40612;BME280;26317;44.894;20.286;2023-09-19T12:42:27;100490.28;;;29.90;47.32
40612;BME280;26317;44.894;20.286;2023-09-19T12:45:10;100498.59;;;29.86;47.11
40612;BME280;26317;44.894;20.286;2023-09-19T12:48:18;100501.75;;;29.81;47.58
40612;BME280;26317;44.894;20.286;2023-09-19T12:51:05;100506.91;;;29.79;46.58
40612;BME280;26317;44.894;20.286;2023-09-19T12:53:39;100502.97;;;29.80;46.26
40612;BME280;26317;44.894;20.286;2023-09-19T12:56:19;100494.66;;;29.84;45.71
40612;BME280;26317;44.894;20.286;2023-09-19T12:58:56;100500.59;;;29.79;46.23
40612;BME280;26317;44.894;20.286;2023-09-19T13:01:34;100510.88;;;29.75;46.79
40612;BME280;26317;44.894;20.286;2023-09-19T13:04:21;100499.06;;;29.67;46.50
40612;BME280;26317;44.894;20.286;2023-09-19T13:06:58;100507.81;;;29.55;46.67
40612;BME280;26317;44.894;20.286;2023-09-19T13:09:37;100493.97;;;29.48;45.98
40612;BME280;26317;44.894;20.286;2023-09-19T13:12:36;100494.78;;;29.45;45.98
40612;BME280;26317;44.894;20.286;2023-09-19T13:15:16;100497.97;;;29.33;46.33
40612;BME280;26317;44.894;20.286;2023-09-19T13:18:12;100492.44;;;29.18;46.61
40612;BME280;26317;44.894;20.286;2023-09-19T13:21:09;100465.28;;;28.92;46.69
40612;BME280;26317;44.894;20.286;2023-09-19T13:23:49;100491.69;;;29.00;47.22
40612;BME280;26317;44.894;20.286;2023-09-19T13:26:20;100489.69;;;29.11;47.53
40612;BME280;26317;44.894;20.286;2023-09-19T13:28:54;100475.13;;;28.97;46.63
40612;BME280;26317;44.894;20.286;2023-09-19T13:31:33;100489.34;;;28.92;46.85
40612;BME280;26317;44.894;20.286;2023-09-19T13:34:25;100498.41;;;28.85;47.30
40612;BME280;26317;44.894;20.286;2023-09-19T13:37:04;100499.59;;;28.88;48.23
40612;BME280;26317;44.894;20.286;2023-09-19T13:39:50;100505.13;;;28.77;47.24
40612;BME280;26317;44.894;20.286;2023-09-19T13:42:36;100500.38;;;28.74;47.10
40612;BME280;26317;44.894;20.286;2023-09-19T13:45:12;100511.03;;;28.83;47.40
40612;BME280;26317;44.894;20.286;2023-09-19T13:47:47;100501.16;;;28.85;46.84
40612;BME280;26317;44.894;20.286;2023-09-19T13:50:32;100522.09;;;28.83;46.89
40612;BME280;26317;44.894;20.286;2023-09-19T13:53:27;100518.50;;;28.68;47.25
40612;BME280;26317;44.894;20.286;2023-09-19T13:56:07;100529.94;;;28.63;47.38
40612;BME280;26317;44.894;20.286;2023-09-19T13:59:01;100518.88;;;28.42;48.34
40612;BME280;26317;44.894;20.286;2023-09-19T14:01:39;100538.56;;;28.33;48.33
40612;BME280;26317;44.894;20.286;2023-09-19T14:04:20;100529.47;;;28.25;48.55
40612;BME280;26317;44.894;20.286;2023-09-19T14:07:03;100536.56;;;28.26;49.10
40612;BME280;26317;44.894;20.286;2023-09-19T14:09:40;100542.47;;;28.25;48.38
40612;BME280;26317;44.894;20.286;2023-09-19T14:12:35;100539.72;;;28.18;49.02
40612;BME280;26317;44.894;20.286;2023-09-19T14:15:12;100533.72;;;28.05;49.73
40612;BME280;26317;44.894;20.286;2023-09-19T14:17:47;100536.53;;;28.16;49.24